createdAt,value
2019-03-03T00:00:15.401Z,99913.19
2019-03-03T00:01:23.594Z,99909.58
2019-03-03T00:02:27.670Z,99907.60
2019-03-03T00:03:31.690Z,99909.47
2019-03-03T00:04:35.852Z,99908.73
2019-03-03T00:05:39.957Z,99915.48
2019-03-03T00:06:43.985Z,99907.52
2019-03-03T00:07:47.993Z,99910.94
2019-03-03T00:08:52.098Z,99907.52
2019-03-03T00:09:56.257Z,99908.64
2019-03-03T00:11:00.326Z,99908.25
2019-03-03T00:12:04.386Z,99902.14
2019-03-03T00:13:08.502Z,99901.74
2019-03-03T00:14:12.633Z,99898.32
2019-03-03T00:15:16.716Z,99896.36
2019-03-03T00:16:20.855Z,99900.70
2019-03-03T00:17:24.961Z,99891.09
2019-03-03T00:18:29.002Z,99896.46
2019-03-03T00:19:33.041Z,99899.58
2019-03-03T00:20:37.145Z,99897.07
2019-03-03T00:21:41.390Z,99898.10
2019-03-03T00:22:45.529Z,99889.43
2019-03-03T00:23:49.587Z,99895.80
2019-03-03T00:24:53.752Z,99897.58
2019-03-03T00:25:57.930Z,99890.66
2019-03-03T00:27:01.985Z,99891.69
2019-03-03T00:28:06.102Z,99889.52
2019-03-03T00:29:10.162Z,99889.42
2019-03-03T00:30:14.354Z,99889.73
2019-03-03T00:31:20.700Z,99894.67
2019-03-03T00:32:24.772Z,99900.56
2019-03-03T00:33:28.864Z,99894.87
2019-03-03T00:34:32.898Z,99895.06
2019-03-03T00:35:37.008Z,99892.89
2019-03-03T00:36:46.347Z,99895.28
2019-03-03T00:37:54.481Z,99886.91
2019-03-03T00:39:13.473Z,99886.60
2019-03-03T00:41:22.145Z,99872.34
2019-03-03T00:42:36.158Z,99876.28
2019-03-03T00:44:45.975Z,99874.50
2019-03-03T00:45:55.650Z,99876.37
2019-03-03T00:47:04.972Z,99876.59
2019-03-03T00:48:13.424Z,99871.20
2019-03-03T00:49:29.383Z,99872.03
2019-03-03T00:50:41.479Z,99868.09
2019-03-03T00:51:50.816Z,99863.53
2019-03-03T00:53:05.999Z,99864.96
2019-03-03T00:55:19.196Z,99868.77
2019-03-03T00:56:27.586Z,99864.92
2019-03-03T00:57:36.796Z,99863.88
2019-03-03T00:58:45.356Z,99858.10
2019-03-03T00:59:54.727Z,99856.86
2019-03-03T01:01:04.162Z,99858.10
2019-03-03T01:02:14.461Z,99859.53
2019-03-03T01:03:27.129Z,99851.55
2019-03-03T01:06:40.296Z,99855.05
2019-03-03T01:08:48.891Z,99859.45
2019-03-03T01:09:58.343Z,99864.16
2019-03-03T01:11:08.689Z,99860.22
2019-03-03T01:12:20.020Z,99865.30
2019-03-03T01:13:34.059Z,99862.60
2019-03-03T01:14:58.301Z,99870.98
2019-03-03T01:16:09.545Z,99870.27
2019-03-03T01:17:20.737Z,99860.22
2019-03-03T01:18:31.733Z,99855.77
2019-03-03T01:19:50.960Z,99864.06
2019-03-03T01:21:02.436Z,99853.39
2019-03-03T01:22:15.431Z,99852.34
2019-03-03T01:23:23.678Z,99850.78
2019-03-03T01:24:33.021Z,99850.86
2019-03-03T01:25:37.387Z,99844.77
2019-03-03T01:26:41.734Z,99841.28
2019-03-03T01:27:46.155Z,99845.92
2019-03-03T01:28:50.184Z,99849.33
2019-03-03T01:29:54.316Z,99847.46
2019-03-03T01:30:58.433Z,99847.76
2019-03-03T01:32:02.567Z,99845.07
2019-03-03T01:33:06.684Z,99846.64
2019-03-03T01:34:10.840Z,99842.48
2019-03-03T01:35:14.986Z,99848.91
2019-03-03T01:36:19.079Z,99849.02
2019-03-03T01:37:23.174Z,99849.63
2019-03-03T01:38:27.240Z,99853.22
2019-03-03T01:39:31.345Z,99855.39
2019-03-03T01:40:35.404Z,99847.63
2019-03-03T01:41:42.300Z,99850.53
2019-03-03T01:42:46.629Z,99856.52
2019-03-03T01:43:50.721Z,99844.55
2019-03-03T01:44:54.747Z,99846.64
2019-03-03T01:45:58.791Z,99849.63
2019-03-03T01:47:02.780Z,99849.41
2019-03-03T01:48:06.798Z,99844.02
2019-03-03T01:49:10.900Z,99842.90
2019-03-03T01:50:15.019Z,99848.88
2019-03-03T01:51:19.132Z,99847.76
2019-03-03T01:52:23.138Z,99844.62
2019-03-03T01:53:27.177Z,99847.31
2019-03-03T01:54:31.310Z,99843.28
2019-03-03T01:55:35.294Z,99845.97
2019-03-03T01:56:39.363Z,99847.92
2019-03-03T01:57:43.430Z,99857.34
2019-03-03T01:58:47.522Z,99852.29
2019-03-03T01:59:51.581Z,99848.66
2019-03-03T02:00:55.566Z,99838.75
2019-03-03T02:01:59.598Z,99850.53
2019-03-03T02:03:03.689Z,99851.38
2019-03-03T02:04:07.857Z,99836.92
2019-03-03T02:05:11.986Z,99841.45
2019-03-03T02:06:16.112Z,99837.41
2019-03-03T02:07:20.222Z,99835.05
2019-03-03T02:08:24.261Z,99831.73
2019-03-03T02:09:28.333Z,99834.23
2019-03-03T02:10:32.477Z,99835.35
2019-03-03T02:11:36.559Z,99822.61
2019-03-03T02:12:40.600Z,99828.73
2019-03-03T02:13:44.689Z,99828.73
2019-03-03T02:14:48.887Z,99828.44
2019-03-03T02:15:52.904Z,99824.70
2019-03-03T02:16:57.105Z,99817.23
2019-03-03T02:18:01.107Z,99818.20
2019-03-03T02:19:05.332Z,99812.59
2019-03-03T02:20:09.999Z,99811.77
2019-03-03T02:21:14.378Z,99813.11
2019-03-03T02:22:18.695Z,99808.56
2019-03-03T02:23:22.905Z,99814.23
2019-03-03T02:24:27.106Z,99815.06
2019-03-03T02:25:31.477Z,99815.50
2019-03-03T02:26:35.851Z,99810.65
2019-03-03T02:27:40.267Z,99813.34
2019-03-03T02:28:44.382Z,99810.34
2019-03-03T02:29:48.753Z,99808.81
2019-03-03T02:30:53.150Z,99805.71
2019-03-03T02:31:57.702Z,99806.02
2019-03-03T02:33:01.979Z,99801.75
2019-03-03T02:34:06.311Z,99809.61
2019-03-03T02:35:10.885Z,99796.16
2019-03-03T02:36:15.227Z,99797.20
2019-03-03T02:37:19.633Z,99798.05
2019-03-03T02:38:23.957Z,99788.34
2019-03-03T02:39:28.238Z,99795.55
2019-03-03T02:40:32.580Z,99789.57
2019-03-03T02:41:36.626Z,99796.67
2019-03-03T02:42:40.784Z,99796.16
2019-03-03T02:43:44.864Z,99795.55
2019-03-03T02:44:49.151Z,99795.11
2019-03-03T02:45:53.161Z,99794.20
2019-03-03T02:46:57.189Z,99790.25
2019-03-03T02:48:01.297Z,99784.35
2019-03-03T02:49:05.401Z,99783.53
2019-03-03T02:50:10.766Z,99781.66
2019-03-03T02:51:15.164Z,99779.49
2019-03-03T02:52:19.556Z,99774.64
2019-03-03T02:53:24.033Z,99780.84
2019-03-03T02:54:28.401Z,99780.02
2019-03-03T02:55:32.693Z,99780.31
2019-03-03T02:56:37.068Z,99778.97
2019-03-03T02:57:41.371Z,99775.45
2019-03-03T02:58:45.858Z,99774.64
2019-03-03T02:59:50.195Z,99769.78
2019-03-03T03:01:02.322Z,99771.13
2019-03-03T03:02:11.067Z,99771.64
2019-03-03T03:03:15.437Z,99768.13
2019-03-03T03:04:19.828Z,99769.81
2019-03-03T03:06:33.378Z,99772.61
2019-03-03T03:07:41.844Z,99767.83
2019-03-03T03:09:21.036Z,99772.61
2019-03-03T03:10:30.347Z,99774.48
2019-03-03T03:11:49.779Z,99775.60
2019-03-03T03:13:57.623Z,99776.12
2019-03-03T03:15:07.048Z,99771.79
2019-03-03T03:16:22.285Z,99762.38
2019-03-03T03:18:30.314Z,99761.52
2019-03-03T03:19:40.590Z,99761.03
2019-03-03T03:20:56.816Z,99758.53
2019-03-03T03:22:13.922Z,99754.49
2019-03-03T03:23:28.287Z,99757.70
2019-03-03T03:24:37.903Z,99753.16
2019-03-03T03:25:48.160Z,99746.79
2019-03-03T03:26:57.406Z,99750.08
2019-03-03T03:28:14.619Z,99733.68
2019-03-03T03:29:32.795Z,99753.30
2019-03-03T03:31:40.945Z,99750.83
2019-03-03T03:32:49.355Z,99745.45
2019-03-03T03:33:58.656Z,99745.14
2019-03-03T03:35:08.315Z,99744.29
2019-03-03T03:36:21.641Z,99743.80
2019-03-03T03:37:37.874Z,99736.97
2019-03-03T03:38:46.227Z,99733.34
2019-03-03T03:40:00.577Z,99733.86
2019-03-03T03:41:11.954Z,99727.66
2019-03-03T03:42:23.324Z,99725.28
2019-03-03T03:45:39.114Z,99723.93
2019-03-03T03:46:50.218Z,99726.81
2019-03-03T03:48:57.260Z,99726.32
2019-03-03T03:50:05.701Z,99726.32
2019-03-03T03:53:19.558Z,99724.64
2019-03-03T03:54:34.984Z,99717.40
2019-03-03T03:55:46.524Z,99716.58
2019-03-03T03:56:55.889Z,99716.58
2019-03-03T03:58:19.227Z,99714.11
2019-03-03T03:59:34.599Z,99723.30
2019-03-03T04:01:46.812Z,99719.27
2019-03-03T04:02:56.434Z,99713.36
2019-03-03T04:04:09.545Z,99708.20
2019-03-03T04:06:17.061Z,99707.91
2019-03-03T04:07:31.399Z,99700.66
2019-03-03T04:08:39.803Z,99702.83
2019-03-03T04:09:51.176Z,99695.81
2019-03-03T04:11:20.617Z,99697.97
2019-03-03T04:12:31.975Z,99692.82
2019-03-03T04:13:41.245Z,99693.12
2019-03-03T04:15:08.725Z,99695.51
2019-03-03T04:16:51.574Z,99692.00
2019-03-03T04:18:03.666Z,99684.45
2019-03-03T04:19:27.233Z,99677.84
2019-03-03T04:20:42.361Z,99681.47
2019-03-03T04:21:50.750Z,99673.09
2019-03-03T04:23:02.917Z,99679.00
2019-03-03T04:24:14.308Z,99680.86
2019-03-03T04:25:22.658Z,99683.55
2019-03-03T04:26:30.917Z,99678.37
2019-03-03T04:28:39.175Z,99679.41
2019-03-03T04:29:47.549Z,99675.08
2019-03-03T04:31:27.272Z,99676.64
2019-03-03T04:32:41.721Z,99666.64
2019-03-03T04:33:52.887Z,99666.86
2019-03-03T04:35:11.017Z,99667.05
2019-03-03T04:36:21.419Z,99663.23
2019-03-03T04:37:30.781Z,99656.52
2019-03-03T04:38:39.180Z,99650.02
2019-03-03T04:39:48.632Z,99646.73
2019-03-03T04:41:02.614Z,99646.73
2019-03-03T04:42:11.833Z,99641.36
2019-03-03T04:43:21.299Z,99646.43
2019-03-03T04:44:30.519Z,99643.75
2019-03-03T04:45:39.253Z,99635.68
2019-03-03T04:47:22.006Z,99639.41
2019-03-03T04:48:32.227Z,99636.72
2019-03-03T04:49:41.434Z,99629.16
2019-03-03T04:50:50.995Z,99625.12
2019-03-03T04:54:03.272Z,99623.48
2019-03-03T04:55:12.702Z,99594.17
2019-03-03T04:56:55.718Z,99608.69
2019-03-03T04:58:06.991Z,99605.18
2019-03-03T05:01:19.770Z,99597.12
2019-03-03T05:02:29.233Z,99585.02
2019-03-03T05:03:38.633Z,99574.42
2019-03-03T05:04:51.961Z,99581.52
2019-03-03T05:06:01.288Z,99584.95
2019-03-03T05:07:13.553Z,99584.42
2019-03-03T05:08:25.392Z,99576.66
2019-03-03T05:09:34.923Z,99573.67
2019-03-03T05:10:44.217Z,99576.13
2019-03-03T05:12:06.355Z,99575.61
2019-03-03T05:13:19.508Z,99573.97
2019-03-03T05:14:27.892Z,99571.58
2019-03-03T05:16:42.125Z,99568.89
2019-03-03T05:17:50.683Z,99559.78
2019-03-03T05:18:58.585Z,99557.09
2019-03-03T05:20:03.188Z,99554.41
2019-03-03T05:21:07.571Z,99552.05
2019-03-03T05:22:11.972Z,99549.36
2019-03-03T05:23:16.340Z,99549.36
2019-03-03T05:24:20.597Z,99544.47
2019-03-03T05:25:24.950Z,99544.47
2019-03-03T05:26:29.385Z,99541.59
2019-03-03T05:27:33.621Z,99537.86
2019-03-03T05:28:37.956Z,99535.17
2019-03-03T05:29:42.321Z,99540.55
2019-03-03T05:30:46.689Z,99535.99
2019-03-03T05:31:51.026Z,99531.26
2019-03-03T05:33:01.925Z,99542.48
2019-03-03T05:34:06.301Z,99535.47
2019-03-03T05:35:10.754Z,99536.81
2019-03-03T05:36:15.216Z,99537.11
2019-03-03T05:37:19.531Z,99532.85
2019-03-03T05:38:23.870Z,99532.33
2019-03-03T05:39:28.245Z,99530.76
2019-03-03T05:40:32.544Z,99523.22
2019-03-03T05:41:36.855Z,99522.63
2019-03-03T05:42:41.143Z,99514.78
2019-03-03T05:43:45.441Z,99519.81
2019-03-03T05:44:49.772Z,99519.81
2019-03-03T05:45:54.094Z,99519.28
2019-03-03T05:46:58.705Z,99514.73
2019-03-03T05:48:03.013Z,99511.52
2019-03-03T05:49:07.394Z,99509.66
2019-03-03T05:50:11.767Z,99511.00
2019-03-03T05:51:16.222Z,99505.09
2019-03-03T05:52:20.622Z,99506.96
2019-03-03T05:53:24.968Z,99500.24
2019-03-03T05:54:29.251Z,99504.57
2019-03-03T05:55:33.575Z,99498.37
2019-03-03T05:56:37.964Z,99498.14
2019-03-03T05:57:42.338Z,99503.00
2019-03-03T05:58:47.074Z,99500.83
2019-03-03T05:59:51.678Z,99504.57
2019-03-03T06:00:55.901Z,99504.27
2019-03-03T06:02:00.227Z,99500.24
2019-03-03T06:03:04.603Z,99497.55
2019-03-03T06:04:08.964Z,99499.94
2019-03-03T06:05:13.143Z,99493.22
2019-03-03T06:06:17.585Z,99497.26
2019-03-03T06:07:21.790Z,99489.72
2019-03-03T06:08:25.918Z,99490.53
2019-03-03T06:09:30.305Z,99490.23
2019-03-03T06:10:34.651Z,99484.86
2019-03-03T06:11:39.079Z,99486.50
2019-03-03T06:12:43.349Z,99484.11
2019-03-03T06:13:47.653Z,99479.78
2019-03-03T06:14:51.941Z,99480.01
2019-03-03T06:15:56.278Z,99476.47
2019-03-03T06:17:00.673Z,99476.80
2019-03-03T06:18:04.960Z,99471.09
2019-03-03T06:19:09.382Z,99464.38
2019-03-03T06:20:13.663Z,99471.42
2019-03-03T06:21:18.051Z,99467.91
2019-03-03T06:22:22.386Z,99471.42
2019-03-03T06:23:26.766Z,99467.38
2019-03-03T06:24:31.025Z,99466.56
2019-03-03T06:25:35.321Z,99466.05
2019-03-03T06:26:39.688Z,99456.11
2019-03-03T06:27:43.898Z,99457.98
2019-03-03T06:28:48.250Z,99458.80
2019-03-03T06:29:52.624Z,99453.95
2019-03-03T06:30:57.063Z,99458.27
2019-03-03T06:32:01.454Z,99451.25
2019-03-03T06:33:05.760Z,99459.62
2019-03-03T06:34:09.988Z,99445.06
2019-03-03T06:35:14.329Z,99445.06
2019-03-03T06:36:18.623Z,99445.26
2019-03-03T06:37:23.234Z,99448.47
2019-03-03T06:38:27.465Z,99442.27
2019-03-03T06:39:31.949Z,99440.41
2019-03-03T06:40:36.280Z,99439.88
2019-03-03T06:41:40.701Z,99447.95
2019-03-03T06:42:45.102Z,99437.19
2019-03-03T06:43:49.440Z,99431.97
2019-03-03T06:44:53.706Z,99440.17
2019-03-03T06:45:58.024Z,99444.83
2019-03-03T06:47:02.251Z,99429.75
2019-03-03T06:48:06.699Z,99431.91
2019-03-03T06:49:11.068Z,99433.78
2019-03-03T06:50:15.443Z,99428.70
2019-03-03T06:51:19.721Z,99427.66
2019-03-03T06:52:24.137Z,99429.59
2019-03-03T06:53:28.582Z,99417.19
2019-03-03T06:54:32.900Z,99423.91
2019-03-03T06:55:37.282Z,99420.93
2019-03-03T06:56:41.677Z,99415.09
2019-03-03T06:57:46.009Z,99419.29
2019-03-03T06:58:50.400Z,99423.91
2019-03-03T06:59:54.698Z,99419.59
2019-03-03T07:00:59.051Z,99429.30
2019-03-03T07:02:03.385Z,99421.22
2019-03-03T07:03:07.866Z,99413.29
2019-03-03T07:04:12.198Z,99415.85
2019-03-03T07:05:16.597Z,99412.93
2019-03-03T07:06:20.981Z,99419.13
2019-03-03T07:07:25.231Z,99412.41
2019-03-03T07:08:29.712Z,99410.02
2019-03-03T07:09:34.115Z,99402.24
2019-03-03T07:10:38.477Z,99409.30
2019-03-03T07:11:42.952Z,99408.24
2019-03-03T07:12:47.433Z,99392.41
2019-03-03T07:13:51.751Z,99395.09
2019-03-03T07:14:56.246Z,99409.42
2019-03-03T07:16:00.444Z,99402.70
2019-03-03T07:17:04.814Z,99401.95
2019-03-03T07:18:09.195Z,99402.27
2019-03-03T07:19:13.562Z,99397.19
2019-03-03T07:20:17.990Z,99399.65
2019-03-03T07:21:22.434Z,99392.70
2019-03-03T07:22:26.577Z,99393.52
2019-03-03T07:23:31.042Z,99395.97
2019-03-03T07:24:38.440Z,99392.23
2019-03-03T07:25:42.761Z,99385.84
2019-03-03T07:26:46.890Z,99389.11
2019-03-03T07:27:51.390Z,99384.78
2019-03-03T07:28:55.741Z,99387.18
2019-03-03T07:30:00.105Z,99384.48
2019-03-03T07:31:04.656Z,99383.44
2019-03-03T07:32:09.210Z,99381.47
2019-03-03T07:33:16.069Z,99383.34
2019-03-03T07:34:20.376Z,99378.27
2019-03-03T07:35:24.843Z,99375.51
2019-03-03T07:36:29.178Z,99369.84
2019-03-03T07:37:33.559Z,99371.47
2019-03-03T07:38:37.844Z,99365.05
2019-03-03T07:39:42.182Z,99371.94
2019-03-03T07:40:46.607Z,99376.79
2019-03-03T07:41:50.857Z,99371.19
2019-03-03T07:42:55.178Z,99372.77
2019-03-03T07:43:59.756Z,99366.56
2019-03-03T07:45:04.656Z,99362.53
2019-03-03T07:46:08.917Z,99365.75
2019-03-03T07:47:13.344Z,99363.35
2019-03-03T07:48:17.724Z,99359.84
2019-03-03T07:49:22.041Z,99357.75
2019-03-03T07:50:26.430Z,99356.40
2019-03-03T07:51:30.832Z,99356.11
2019-03-03T07:52:35.283Z,99350.73
2019-03-03T07:53:39.702Z,99354.47
2019-03-03T07:54:44.014Z,99349.09
2019-03-03T07:55:48.446Z,99341.61
2019-03-03T07:56:52.951Z,99344.89
2019-03-03T07:57:57.433Z,99340.09
2019-03-03T07:59:02.042Z,99345.05
2019-03-03T08:00:07.579Z,99336.28
2019-03-03T08:01:11.933Z,99338.62
2019-03-03T08:02:16.331Z,99331.72
2019-03-03T08:03:20.927Z,99329.95
2019-03-03T08:04:25.302Z,99325.91
2019-03-03T08:05:29.754Z,99330.59
2019-03-03T08:06:33.915Z,99317.81
2019-03-03T08:07:38.157Z,99320.13
2019-03-03T08:08:42.383Z,99313.23
2019-03-03T08:09:46.678Z,99314.87
2019-03-03T08:10:50.882Z,99312.33
2019-03-03T08:11:55.019Z,99308.64
2019-03-03T08:13:08.743Z,99303.78
2019-03-03T08:14:03.579Z,99308.49
2019-03-03T08:15:07.881Z,99296.97
2019-03-03T08:16:12.425Z,99295.73
2019-03-03T08:17:16.540Z,99293.42
2019-03-03T08:18:20.704Z,99295.41
2019-03-03T08:19:24.894Z,99290.92
2019-03-03T08:20:29.106Z,99290.98
2019-03-03T08:21:33.655Z,99280.80
2019-03-03T08:22:38.187Z,99281.17
2019-03-03T08:23:42.917Z,99280.11
2019-03-03T08:24:47.042Z,99275.83
2019-03-03T08:25:51.407Z,99270.79
2019-03-03T08:26:55.951Z,99272.19
2019-03-03T08:28:08.101Z,99275.02
2019-03-03T08:29:12.642Z,99269.50
2019-03-03T08:30:18.466Z,99265.94
2019-03-03T08:31:26.771Z,99266.75
2019-03-03T08:32:31.494Z,99264.11
2019-03-03T08:33:35.971Z,99260.69
2019-03-03T08:34:46.990Z,99261.27
2019-03-03T08:35:51.275Z,99252.38
2019-03-03T08:36:56.319Z,99259.05
2019-03-03T08:38:00.384Z,99251.70
2019-03-03T08:39:05.466Z,99249.92
2019-03-03T08:40:09.919Z,99244.98
2019-03-03T08:41:14.346Z,99248.34
2019-03-03T08:42:23.807Z,99251.27
2019-03-03T08:43:37.834Z,99240.20
2019-03-03T08:45:45.782Z,99241.31
2019-03-03T08:46:55.245Z,99231.08
2019-03-03T08:48:03.873Z,99232.23
2019-03-03T08:49:14.075Z,99230.13
2019-03-03T08:50:22.322Z,99225.69
2019-03-03T08:51:37.586Z,99222.30
2019-03-03T08:52:45.735Z,99220.72
2019-03-03T08:54:10.930Z,99214.32
2019-03-03T08:56:19.121Z,99212.40
2019-03-03T08:57:28.491Z,99212.97
2019-03-03T08:58:36.820Z,99201.44
2019-03-03T09:00:03.958Z,99205.89
2019-03-03T09:01:13.170Z,99201.89
2019-03-03T09:03:28.011Z,99198.99
2019-03-03T09:05:40.316Z,99198.27
2019-03-03T09:06:48.399Z,99193.25
2019-03-03T09:08:55.380Z,99193.25
2019-03-03T09:10:35.295Z,99186.97
2019-03-03T09:11:44.541Z,99186.22
2019-03-03T09:12:57.596Z,99185.62
2019-03-03T09:15:14.055Z,99182.47
2019-03-03T09:16:29.477Z,99177.08
2019-03-03T09:18:12.308Z,99178.59
2019-03-03T09:20:21.161Z,99177.13
2019-03-03T09:21:30.451Z,99173.00
2019-03-03T09:23:14.020Z,99174.80
2019-03-03T09:24:39.161Z,99167.37
2019-03-03T09:25:50.210Z,99166.30
2019-03-03T09:27:13.727Z,99167.94
2019-03-03T09:28:32.536Z,99172.44
2019-03-03T09:29:42.555Z,99166.77
2019-03-03T09:31:23.996Z,99160.80
2019-03-03T09:33:06.645Z,99165.40
2019-03-03T09:35:17.263Z,99157.00
2019-03-03T09:37:28.265Z,99146.91
2019-03-03T09:38:36.741Z,99148.79
2019-03-03T09:40:43.545Z,99144.43
2019-03-03T09:41:56.468Z,99148.18
2019-03-03T09:43:22.715Z,99141.41
2019-03-03T09:44:33.925Z,99133.92
2019-03-03T09:45:46.306Z,99132.63
2019-03-03T09:47:06.490Z,99132.63
2019-03-03T09:50:19.695Z,99130.65
2019-03-03T09:52:27.694Z,99119.77
2019-03-03T09:53:42.466Z,99117.13
2019-03-03T09:54:51.930Z,99117.03
2019-03-03T09:56:59.015Z,99114.14
2019-03-03T09:58:23.243Z,99109.69
2019-03-03T10:00:39.737Z,99107.00
2019-03-03T10:01:54.055Z,99110.34
2019-03-03T10:03:19.829Z,99096.81
2019-03-03T10:04:29.623Z,99100.20
2019-03-03T10:07:44.750Z,99103.23
2019-03-03T10:09:58.093Z,99080.63
2019-03-03T10:11:22.348Z,99091.63
2019-03-03T10:12:31.593Z,99093.14
2019-03-03T10:13:41.063Z,99089.18
2019-03-03T10:14:50.742Z,99089.34
2019-03-03T10:16:03.010Z,99089.91
2019-03-03T10:17:14.558Z,99088.92
2019-03-03T10:18:32.686Z,99087.33
2019-03-03T10:21:47.794Z,99083.42
2019-03-03T10:23:01.972Z,99079.51
2019-03-03T10:24:13.251Z,99082.80
2019-03-03T10:25:22.295Z,99081.15
2019-03-03T10:26:35.143Z,99076.05
2019-03-03T10:27:59.194Z,99071.52
2019-03-03T10:29:12.247Z,99080.20
2019-03-03T10:32:25.434Z,99080.20
2019-03-03T10:33:40.703Z,99080.20
2019-03-03T10:34:56.998Z,99076.48
2019-03-03T10:36:08.154Z,99079.69
2019-03-03T10:38:18.238Z,99075.19
2019-03-03T10:40:31.261Z,99070.75
2019-03-03T10:42:43.347Z,99066.58
2019-03-03T10:43:51.631Z,99064.45
2019-03-03T10:45:02.944Z,99060.46
2019-03-03T10:46:17.510Z,99057.48
2019-03-03T10:47:57.077Z,99056.20
2019-03-03T10:49:06.406Z,99053.91
2019-03-03T10:50:21.734Z,99050.92
2019-03-03T10:51:37.085Z,99051.01
2019-03-03T10:52:53.398Z,99044.00
2019-03-03T10:54:33.244Z,99044.59
2019-03-03T10:56:45.310Z,99041.95
2019-03-03T10:58:00.574Z,99035.91
2019-03-03T10:59:11.612Z,99032.33
2019-03-03T11:00:23.148Z,99029.96
2019-03-03T11:01:34.321Z,99032.48
2019-03-03T11:02:43.446Z,99028.48
2019-03-03T11:03:56.648Z,99022.86
2019-03-03T11:06:08.336Z,99021.62
2019-03-03T11:07:17.642Z,99020.94
2019-03-03T11:08:27.548Z,99017.23
2019-03-03T11:09:50.999Z,99020.89
2019-03-03T11:11:14.335Z,99024.59
2019-03-03T11:12:23.703Z,99022.08
2019-03-03T11:14:05.174Z,99018.19
2019-03-03T11:15:48.242Z,99011.95
2019-03-03T11:16:59.556Z,99007.09
2019-03-03T11:18:09.864Z,99006.89
2019-03-03T11:19:54.512Z,99007.48
2019-03-03T11:21:08.696Z,98998.52
2019-03-03T11:22:20.907Z,98999.52
2019-03-03T11:23:29.120Z,98999.41
2019-03-03T11:24:41.234Z,98993.32
2019-03-03T11:27:55.172Z,98990.62
2019-03-03T11:29:04.474Z,98986.35
2019-03-03T11:30:20.043Z,98988.42
2019-03-03T11:31:29.277Z,98985.44
2019-03-03T11:32:43.640Z,98980.19
2019-03-03T11:33:53.191Z,98982.59
2019-03-03T11:35:05.738Z,98982.67
2019-03-03T11:36:18.688Z,98976.80
2019-03-03T11:37:30.647Z,98977.94
2019-03-03T11:38:46.933Z,98979.95
2019-03-03T11:39:56.945Z,98969.28
2019-03-03T11:41:05.340Z,98972.66
2019-03-03T11:42:15.764Z,98973.83
2019-03-03T11:43:25.050Z,98975.77
2019-03-03T11:45:34.125Z,98973.61
2019-03-03T11:46:43.134Z,98967.94
2019-03-03T11:48:06.232Z,98972.02
2019-03-03T11:49:14.346Z,98971.77
2019-03-03T11:50:55.870Z,98967.94
2019-03-03T11:53:03.742Z,98965.53
2019-03-03T11:54:15.253Z,98962.41
2019-03-03T11:55:38.654Z,98960.04
2019-03-03T11:56:48.711Z,98959.54
2019-03-03T11:58:04.752Z,98957.27
2019-03-03T11:59:18.766Z,98958.91
2019-03-03T12:00:36.173Z,98961.20
2019-03-03T12:01:48.139Z,98959.76
2019-03-03T12:03:04.225Z,98957.56
2019-03-03T12:04:13.485Z,98957.59
2019-03-03T12:05:26.472Z,98944.77
2019-03-03T12:06:36.690Z,98952.56
2019-03-03T12:07:44.818Z,98955.25
2019-03-03T12:08:53.891Z,98945.58
2019-03-03T12:10:11.031Z,98949.02
2019-03-03T12:11:21.144Z,98944.73
2019-03-03T12:13:29.146Z,98943.14
2019-03-03T12:15:10.381Z,98952.74
2019-03-03T12:16:19.568Z,98939.81
2019-03-03T12:18:27.298Z,98941.69
2019-03-03T12:19:42.303Z,98939.77
2019-03-03T12:20:58.187Z,98940.48
2019-03-03T12:24:12.265Z,98937.47
2019-03-03T12:25:25.520Z,98934.24
2019-03-03T12:26:36.614Z,98929.92
2019-03-03T12:27:46.569Z,98934.10
2019-03-03T12:29:03.639Z,98931.62
2019-03-03T12:30:16.840Z,98926.31
2019-03-03T12:33:28.388Z,98923.47
2019-03-03T12:34:37.910Z,98913.66
2019-03-03T12:35:47.246Z,98917.03
2019-03-03T12:37:12.577Z,98917.95
2019-03-03T12:38:33.739Z,98916.11
2019-03-03T12:41:45.818Z,98918.37
2019-03-03T12:42:59.098Z,98911.56
2019-03-03T12:45:07.947Z,98914.61
2019-03-03T12:46:21.145Z,98908.41
2019-03-03T12:47:30.341Z,98904.94
2019-03-03T12:48:46.431Z,98898.33
2019-03-03T12:49:56.053Z,98903.81
2019-03-03T12:53:09.376Z,98896.55
2019-03-03T12:54:20.426Z,98891.07
2019-03-03T12:55:29.581Z,98896.83
2019-03-03T12:56:37.748Z,98895.80
2019-03-03T12:58:48.535Z,98895.27
2019-03-03T13:00:11.797Z,98895.89
2019-03-03T13:01:23.906Z,98902.50
2019-03-03T13:02:35.877Z,98904.16
2019-03-03T13:03:59.067Z,98900.71
2019-03-03T13:05:26.214Z,98907.53
2019-03-03T13:06:38.385Z,98903.42
2019-03-03T13:07:58.697Z,98903.71
2019-03-03T13:09:10.801Z,98902.75
2019-03-03T13:10:21.996Z,98897.66
2019-03-03T13:13:34.557Z,98897.91
2019-03-03T13:15:12.181Z,98906.94
2019-03-03T13:16:51.697Z,98909.09
2019-03-03T13:18:01.644Z,98907.64
2019-03-03T13:19:10.798Z,98914.16
2019-03-03T13:20:26.532Z,98911.92
2019-03-03T13:21:36.495Z,98906.67
2019-03-03T13:23:22.027Z,98903.72
2019-03-03T13:24:31.171Z,98898.02
2019-03-03T13:26:12.180Z,98900.75
2019-03-03T13:27:30.482Z,98899.98
2019-03-03T13:28:39.725Z,98903.39
2019-03-03T13:29:48.817Z,98903.55
2019-03-03T13:31:03.927Z,98903.72
2019-03-03T13:32:27.395Z,98910.37
2019-03-03T13:34:36.638Z,98902.47
2019-03-03T13:36:46.862Z,98907.52
2019-03-03T13:37:56.070Z,98891.39
2019-03-03T13:39:11.559Z,98906.01
2019-03-03T13:41:20.241Z,98902.15
2019-03-03T13:42:37.492Z,98910.49
2019-03-03T13:43:42.273Z,98907.52
2019-03-03T13:44:46.742Z,98903.53
2019-03-03T13:45:51.111Z,98907.47
2019-03-03T13:46:55.522Z,98912.20
2019-03-03T13:48:00.059Z,98915.17
2019-03-03T13:49:04.365Z,98918.72
2019-03-03T13:50:11.234Z,98910.92
2019-03-03T13:51:15.789Z,98916.87
2019-03-03T13:52:20.105Z,98926.27
2019-03-03T13:53:24.542Z,98914.70
2019-03-03T13:54:28.916Z,98918.93
2019-03-03T13:55:33.495Z,98923.25
2019-03-03T13:56:37.903Z,98921.42
2019-03-03T13:57:42.210Z,98918.41
2019-03-03T13:58:46.541Z,98922.09
2019-03-03T13:59:50.885Z,98925.05
2019-03-03T14:00:55.670Z,98925.58
2019-03-03T14:02:00.327Z,98920.50
2019-03-03T14:03:04.873Z,98918.09
2019-03-03T14:04:09.510Z,98927.50
2019-03-03T14:05:14.131Z,98922.89
2019-03-03T14:06:18.528Z,98928.11
2019-03-03T14:07:23.011Z,98928.64
2019-03-03T14:08:27.441Z,98923.73
2019-03-03T14:09:31.805Z,98933.42
2019-03-03T14:10:36.199Z,98928.86
2019-03-03T14:11:40.631Z,98929.79
2019-03-03T14:12:45.142Z,98926.99
2019-03-03T14:13:49.518Z,98933.36
2019-03-03T14:14:53.883Z,98935.04
2019-03-03T14:15:58.205Z,98933.42
2019-03-03T14:17:02.696Z,98931.60
2019-03-03T14:18:07.416Z,98930.16
2019-03-03T14:19:12.100Z,98930.26
2019-03-03T14:20:18.631Z,98937.63
2019-03-03T14:21:22.744Z,98934.52
2019-03-03T14:22:27.002Z,98934.80
2019-03-03T14:23:31.077Z,98934.87
2019-03-03T14:24:35.267Z,98938.19
2019-03-03T14:25:39.350Z,98937.45
2019-03-03T14:26:43.809Z,98940.06
2019-03-03T14:27:48.295Z,98944.29
2019-03-03T14:28:52.642Z,98942.48
2019-03-03T14:29:56.746Z,98935.58
2019-03-03T14:31:00.869Z,98938.32
2019-03-03T14:32:05.026Z,98943.25
2019-03-03T14:33:09.244Z,98938.52
2019-03-03T14:34:13.346Z,98931.67
2019-03-03T14:35:17.546Z,98930.91
2019-03-03T14:36:21.663Z,98933.13
2019-03-03T14:37:25.755Z,98927.22
2019-03-03T14:38:29.943Z,98936.73
2019-03-03T14:39:34.028Z,98936.57
2019-03-03T14:40:38.207Z,98941.70
2019-03-03T14:41:42.391Z,98943.68
2019-03-03T14:42:46.728Z,98945.16